createdAt,value
2019-02-16T00:00:23.244Z,195.00
2019-02-16T00:02:51.502Z,138.03
2019-02-16T00:05:19.872Z,153.83
2019-02-16T00:07:48.032Z,135.37
2019-02-16T00:10:16.235Z,138.20
2019-02-16T00:12:44.396Z,116.57
2019-02-16T00:15:12.554Z,121.07
2019-02-16T00:17:40.738Z,111.83
2019-02-16T00:20:08.970Z,111.83
2019-02-16T00:22:37.258Z,110.97
2019-02-16T00:25:05.952Z,114.23
2019-02-16T00:27:34.341Z,115.27
2019-02-16T00:30:02.559Z,116.00
2019-02-16T00:32:31.020Z,120.53
2019-02-16T00:34:59.231Z,113.30
2019-02-16T00:37:27.392Z,118.17
2019-02-16T00:39:55.585Z,115.53
2019-02-16T00:42:23.922Z,111.97
2019-02-16T00:44:52.116Z,104.53
2019-02-16T00:47:20.355Z,100.67
2019-02-16T00:49:48.513Z,92.23
2019-02-16T00:52:17.548Z,83.63
2019-02-16T00:54:45.755Z,84.10
2019-02-16T00:57:14.207Z,101.67
2019-02-16T00:59:42.362Z,100.30
2019-02-16T01:02:10.726Z,98.90
2019-02-16T01:04:39.309Z,102.60
2019-02-16T01:07:07.501Z,109.50
2019-02-16T01:09:35.695Z,113.47
2019-02-16T01:12:04.052Z,120.93
2019-02-16T01:14:32.195Z,106.77
2019-02-16T01:17:00.388Z,106.43
2019-02-16T01:19:28.542Z,106.80
2019-02-16T01:21:56.708Z,102.60
2019-02-16T01:24:24.905Z,102.20
2019-02-16T01:26:53.061Z,104.27
2019-02-16T01:29:21.211Z,103.30
2019-02-16T01:31:49.394Z,94.10
2019-02-16T01:34:17.554Z,81.97
2019-02-16T01:36:45.703Z,92.40
2019-02-16T01:39:13.894Z,84.23
2019-02-16T01:41:42.052Z,84.70
2019-02-16T01:44:10.277Z,86.87
2019-02-16T01:46:38.677Z,72.20
2019-02-16T01:49:06.815Z,77.63
2019-02-16T01:51:34.971Z,78.93
2019-02-16T01:54:03.436Z,83.30
2019-02-16T01:56:31.623Z,92.97
2019-02-16T01:58:59.768Z,88.77
2019-02-16T02:01:27.961Z,82.93
2019-02-16T02:03:56.112Z,84.90
2019-02-16T02:06:24.505Z,75.37
2019-02-16T02:08:52.699Z,77.57
2019-02-16T02:11:21.072Z,78.03
2019-02-16T02:13:49.227Z,82.23
2019-02-16T02:16:17.623Z,74.33
2019-02-16T02:18:46.034Z,71.03
2019-02-16T02:21:14.512Z,73.13
2019-02-16T02:23:42.712Z,75.17
2019-02-16T02:26:11.131Z,70.17
2019-02-16T02:28:39.274Z,59.70
2019-02-16T02:31:08.016Z,62.77
2019-02-16T02:33:36.166Z,66.10
2019-02-16T02:36:04.589Z,58.07
2019-02-16T02:38:32.855Z,65.17
2019-02-16T02:41:01.224Z,72.67
2019-02-16T02:43:29.376Z,67.80
2019-02-16T02:45:57.853Z,72.50
2019-02-16T02:48:26.128Z,84.67
2019-02-16T02:50:54.424Z,110.13
2019-02-16T02:53:30.822Z,91.83
2019-02-16T02:55:53.656Z,101.47
2019-02-16T02:58:21.968Z,71.43
2019-02-16T03:00:50.239Z,79.87
2019-02-16T03:03:18.387Z,74.40
2019-02-16T03:05:46.740Z,75.60
2019-02-16T03:08:14.956Z,69.93
2019-02-16T03:10:43.213Z,73.00
2019-02-16T03:13:11.353Z,74.53
2019-02-16T03:15:39.543Z,66.27
2019-02-16T03:18:07.691Z,69.23
2019-02-16T03:20:35.844Z,67.07
2019-02-16T03:23:15.080Z,59.67
2019-02-16T03:25:45.002Z,46.70
2019-02-16T03:28:17.653Z,71.93
2019-02-16T03:30:56.636Z,68.07
2019-02-16T03:33:26.609Z,57.10
2019-02-16T03:36:05.113Z,60.60
2019-02-16T03:38:47.073Z,55.20
2019-02-16T03:41:15.311Z,50.27
2019-02-16T03:43:43.454Z,61.63
2019-02-16T03:46:11.845Z,63.97
2019-02-16T03:48:40.001Z,63.57
2019-02-16T03:51:08.152Z,60.27
2019-02-16T03:53:36.327Z,58.93
2019-02-16T03:56:04.886Z,48.80
2019-02-16T03:58:34.045Z,52.33
2019-02-16T04:01:02.304Z,52.93
2019-02-16T04:03:30.528Z,54.43
2019-02-16T04:05:58.695Z,47.67
2019-02-16T04:08:26.925Z,49.47
2019-02-16T04:10:55.081Z,44.13
2019-02-16T04:13:23.234Z,45.73
2019-02-16T04:15:51.429Z,45.47
2019-02-16T04:18:19.575Z,54.07
2019-02-16T04:20:47.731Z,53.97
2019-02-16T04:23:16.159Z,52.60
2019-02-16T04:25:44.299Z,66.47
2019-02-16T04:28:12.447Z,68.63
2019-02-16T04:30:40.931Z,71.87
2019-02-16T04:33:09.105Z,51.17
2019-02-16T04:35:37.260Z,64.43
2019-02-16T04:38:05.755Z,60.47
2019-02-16T04:40:33.975Z,62.80
2019-02-16T04:43:02.324Z,74.23
2019-02-16T04:45:30.547Z,75.50
2019-02-16T04:47:58.808Z,69.20
2019-02-16T04:50:27.028Z,70.97
2019-02-16T04:52:55.227Z,71.47
2019-02-16T04:55:23.380Z,70.07
2019-02-16T04:57:51.565Z,61.90
2019-02-16T05:00:20.932Z,68.00
2019-02-16T05:02:49.085Z,69.97
2019-02-16T05:05:17.318Z,67.03
2019-02-16T05:07:45.507Z,66.07
2019-02-16T05:10:13.660Z,62.27
2019-02-16T05:12:41.813Z,78.97
2019-02-16T05:15:09.992Z,78.00
2019-02-16T05:17:38.144Z,65.83
2019-02-16T05:20:07.375Z,63.73
2019-02-16T05:22:44.374Z,58.07
2019-02-16T05:25:05.843Z,60.00
2019-02-16T05:27:34.237Z,56.13
2019-02-16T05:30:02.744Z,62.20
2019-02-16T05:32:30.892Z,57.13
2019-02-16T05:34:59.039Z,59.63
2019-02-16T05:37:27.537Z,52.97
2019-02-16T05:39:55.930Z,55.53
2019-02-16T05:42:24.321Z,57.63
2019-02-16T05:44:52.773Z,57.03
2019-02-16T05:47:21.139Z,56.77
2019-02-16T05:49:49.532Z,52.23
2019-02-16T05:52:18.199Z,47.13
2019-02-16T05:54:46.591Z,50.77
2019-02-16T05:57:15.002Z,47.37
2019-02-16T05:59:43.459Z,47.93
2019-02-16T06:02:12.865Z,47.73
2019-02-16T06:04:41.320Z,54.08
2019-02-16T06:07:09.761Z,42.93
2019-02-16T06:09:38.152Z,45.47
2019-02-16T06:12:06.543Z,45.33
2019-02-16T06:14:35.129Z,48.27
2019-02-16T06:17:03.714Z,48.33
2019-02-16T06:19:32.118Z,49.73
2019-02-16T06:22:00.379Z,49.07
2019-02-16T06:24:28.660Z,49.43
2019-02-16T06:26:56.819Z,49.63
2019-02-16T06:29:25.001Z,51.57
2019-02-16T06:31:53.156Z,55.40
2019-02-16T06:34:21.355Z,56.67
2019-02-16T06:36:49.530Z,56.70
2019-02-16T06:39:17.683Z,74.20
2019-02-16T06:41:46.277Z,94.53
2019-02-16T06:44:14.614Z,73.73
2019-02-16T06:46:42.764Z,79.30
2019-02-16T06:49:10.905Z,76.00
2019-02-16T06:51:39.096Z,64.47
2019-02-16T06:54:07.488Z,64.23
2019-02-16T06:56:40.263Z,67.93
2019-02-16T06:59:08.454Z,67.50
2019-02-16T07:01:36.844Z,69.80
2019-02-16T07:04:06.499Z,81.37
2019-02-16T07:06:34.878Z,76.27
2019-02-16T07:09:05.103Z,62.53
2019-02-16T07:11:33.216Z,87.67
2019-02-16T07:14:01.514Z,72.43
2019-02-16T07:16:47.482Z,65.07
2019-02-16T07:19:25.951Z,52.50
2019-02-16T07:21:55.841Z,47.70
2019-02-16T07:24:23.999Z,56.37
2019-02-16T07:26:52.204Z,50.73
2019-02-16T07:29:20.355Z,59.77
2019-02-16T07:31:48.714Z,61.23
2019-02-16T07:34:16.911Z,108.10
2019-02-16T07:36:45.093Z,65.33
2019-02-16T07:39:13.243Z,50.33
2019-02-16T07:41:41.441Z,49.13
2019-02-16T07:44:27.700Z,58.40
2019-02-16T07:46:57.544Z,62.33
2019-02-16T07:49:27.340Z,63.93
2019-02-16T07:51:57.257Z,58.13
2019-02-16T07:54:33.132Z,86.67
2019-02-16T07:57:03.007Z,74.70
2019-02-16T07:59:35.328Z,82.60
2019-02-16T08:02:05.180Z,108.97
2019-02-16T08:04:46.888Z,110.27
2019-02-16T08:07:20.632Z,97.07
2019-02-16T08:09:53.203Z,71.47
2019-02-16T08:12:23.269Z,59.80
2019-02-16T08:15:05.475Z,61.33
2019-02-16T08:17:41.395Z,67.03
2019-02-16T08:20:26.433Z,54.60
2019-02-16T08:23:05.488Z,54.87
2019-02-16T08:25:41.297Z,53.13
2019-02-16T08:28:20.682Z,58.20
2019-02-16T08:31:07.090Z,60.40
2019-02-16T08:33:37.129Z,62.40
2019-02-16T08:36:06.913Z,62.73
2019-02-16T08:38:36.955Z,60.97
2019-02-16T08:41:12.755Z,97.13
2019-02-16T08:43:58.702Z,108.57
2019-02-16T08:46:28.531Z,84.87
2019-02-16T08:48:58.431Z,95.00
2019-02-16T08:51:28.289Z,79.57
2019-02-16T08:54:13.032Z,96.17
2019-02-16T08:56:45.642Z,87.40
2019-02-16T08:59:18.495Z,79.90
2019-02-16T09:02:00.625Z,75.73
2019-02-16T09:04:30.415Z,66.03
2019-02-16T09:07:06.718Z,63.77
2019-02-16T09:09:40.492Z,57.23
2019-02-16T09:12:13.338Z,53.03
2019-02-16T09:14:52.061Z,40.20
2019-02-16T09:17:24.916Z,45.33
2019-02-16T09:20:11.650Z,41.87
2019-02-16T09:22:50.831Z,46.10
2019-02-16T09:25:20.644Z,41.20
2019-02-16T09:27:50.444Z,51.53
2019-02-16T09:30:20.327Z,49.77
2019-02-16T09:32:50.263Z,51.03
2019-02-16T09:35:23.387Z,50.20
2019-02-16T09:37:59.333Z,51.33
2019-02-16T09:40:35.438Z,55.60
2019-02-16T09:43:12.536Z,61.93
2019-02-16T09:45:42.443Z,50.33
2019-02-16T09:48:18.413Z,46.03
2019-02-16T09:51:03.874Z,44.17
2019-02-16T09:53:37.035Z,50.27
2019-02-16T09:56:23.524Z,45.53
2019-02-16T09:58:58.155Z,48.60
2019-02-16T10:01:44.593Z,47.50
2019-02-16T10:04:14.973Z,41.33
2019-02-16T10:06:57.202Z,47.10
2019-02-16T10:09:32.973Z,26.83
2019-02-16T10:12:03.960Z,27.20
2019-02-16T10:14:37.022Z,24.67
2019-02-16T10:17:09.864Z,33.77
2019-02-16T10:19:53.922Z,25.20
2019-02-16T10:22:26.860Z,26.67
2019-02-16T10:25:07.499Z,32.63
2019-02-16T10:27:40.339Z,27.97
2019-02-16T10:30:15.864Z,26.07
2019-02-16T10:33:04.168Z,22.43
2019-02-16T10:35:39.967Z,26.90
2019-02-16T10:38:26.475Z,25.47
2019-02-16T10:41:17.781Z,20.30
2019-02-16T10:43:57.168Z,18.73
2019-02-16T10:46:29.908Z,18.27
2019-02-16T10:49:07.029Z,17.10
2019-02-16T10:51:52.348Z,16.87
2019-02-16T10:54:27.980Z,19.93
2019-02-16T10:57:02.880Z,18.47
2019-02-16T10:59:39.021Z,17.13
2019-02-16T11:02:11.689Z,21.33
2019-02-16T11:04:49.934Z,19.20
2019-02-16T11:07:21.445Z,22.40
2019-02-16T11:09:53.831Z,8.97
2019-02-16T11:12:33.170Z,9.07
2019-02-16T11:15:03.025Z,7.67
2019-02-16T11:17:37.043Z,10.37
2019-02-16T11:20:25.618Z,7.03
2019-02-16T11:22:58.581Z,8.13
2019-02-16T11:25:36.216Z,15.53
2019-02-16T11:28:07.713Z,38.63
2019-02-16T11:30:40.404Z,4.10
2019-02-16T11:33:10.488Z,4.30
2019-02-16T11:35:43.616Z,6.40
2019-02-16T11:38:13.922Z,6.27
2019-02-16T11:40:49.978Z,3.47
2019-02-16T11:43:23.226Z,4.73
2019-02-16T11:46:09.646Z,14.07
2019-02-16T11:48:48.685Z,4.47
2019-02-16T11:51:26.613Z,6.70
2019-02-16T11:54:08.009Z,7.17
2019-02-16T11:56:38.482Z,4.93
2019-02-16T11:59:26.645Z,4.33
2019-02-16T12:01:56.428Z,6.93
2019-02-16T12:04:38.366Z,98.63
2019-02-16T12:07:11.297Z,13.08
2019-02-16T12:09:41.067Z,12.83
2019-02-16T12:12:17.347Z,8.57
2019-02-16T12:14:57.612Z,5.28
2019-02-16T12:17:30.248Z,5.35
2019-02-16T12:20:00.418Z,4.20
2019-02-16T12:22:30.313Z,8.85
2019-02-16T12:25:06.171Z,4.90
2019-02-16T12:27:43.936Z,5.67
2019-02-16T12:30:31.882Z,5.65
2019-02-16T12:33:01.710Z,6.87
2019-02-16T12:35:45.169Z,7.10
2019-02-16T12:38:21.645Z,6.92
2019-02-16T12:41:07.978Z,8.00
2019-02-16T12:43:41.308Z,7.62
2019-02-16T12:46:19.432Z,7.22
2019-02-16T12:49:00.498Z,11.05
2019-02-16T12:51:45.661Z,8.08
2019-02-16T12:54:21.304Z,8.55
2019-02-16T12:56:54.310Z,6.45
2019-02-16T12:59:26.931Z,8.10
2019-02-16T13:02:08.971Z,7.80
2019-02-16T13:04:45.949Z,16.57
2019-02-16T13:07:18.535Z,11.78
2019-02-16T13:10:04.649Z,12.78
2019-02-16T13:12:43.674Z,10.18
2019-02-16T13:15:16.417Z,10.18
2019-02-16T13:17:47.788Z,13.83
2019-02-16T13:20:18.850Z,14.85
2019-02-16T13:22:51.404Z,9.63
2019-02-16T13:25:30.311Z,12.65
2019-02-16T13:28:15.228Z,11.70
2019-02-16T13:30:47.842Z,13.47
2019-02-16T13:33:23.710Z,10.57
2019-02-16T13:35:53.548Z,11.33
2019-02-16T13:38:26.831Z,14.03
2019-02-16T13:41:06.011Z,15.17
2019-02-16T13:43:45.052Z,13.70
2019-02-16T13:46:18.120Z,19.53
2019-02-16T13:48:49.519Z,23.27
2019-02-16T13:51:25.024Z,18.93
2019-02-16T13:54:18.471Z,10.53
2019-02-16T13:56:57.928Z,13.50
2019-02-16T13:59:37.366Z,10.73
2019-02-16T14:02:08.259Z,14.50
2019-02-16T14:04:38.507Z,14.73
2019-02-16T14:07:08.292Z,15.43
2019-02-16T14:09:50.821Z,15.90
2019-02-16T14:12:37.646Z,17.50
2019-02-16T14:15:11.003Z,14.43
2019-02-16T14:17:40.940Z,12.43
2019-02-16T14:20:09.993Z,18.20
2019-02-16T14:22:38.189Z,13.87
2019-02-16T14:25:11.130Z,13.50
2019-02-16T14:27:39.050Z,17.87
2019-02-16T14:30:08.948Z,27.20
2019-02-16T14:32:38.748Z,24.37
2019-02-16T14:35:08.495Z,17.60
2019-02-16T14:37:50.757Z,30.13
2019-02-16T14:40:19.143Z,23.23
2019-02-16T14:42:47.376Z,24.43
2019-02-16T14:45:15.708Z,19.90
2019-02-16T14:47:45.507Z,35.50
2019-02-16T14:50:16.967Z,48.90
2019-02-16T14:52:45.314Z,61.57
2019-02-16T14:55:14.625Z,83.10
2019-02-16T14:57:42.708Z,92.23
2019-02-16T15:00:11.949Z,91.77
2019-02-16T15:02:40.265Z,91.10
2019-02-16T15:05:09.155Z,78.57
2019-02-16T15:07:39.536Z,142.67
2019-02-16T15:10:09.592Z,84.03
2019-02-16T15:12:37.849Z,77.13
2019-02-16T15:15:07.307Z,82.43
2019-02-16T15:17:35.679Z,68.77
2019-02-16T15:20:05.462Z,89.97
2019-02-16T15:22:34.943Z,162.27
2019-02-16T15:25:03.958Z,138.07
2019-02-16T15:27:32.455Z,136.77
2019-02-16T15:30:01.532Z,136.43
2019-02-16T15:32:29.822Z,131.23
2019-02-16T15:34:58.246Z,105.40
2019-02-16T15:37:28.098Z,89.60
2019-02-16T15:39:56.302Z,106.07
2019-02-16T15:42:24.669Z,129.70
2019-02-16T15:44:54.499Z,130.83
2019-02-16T15:47:22.784Z,141.30
2019-02-16T15:49:51.004Z,132.30
2019-02-16T15:52:19.218Z,121.47
2019-02-16T15:54:47.722Z,125.53
2019-02-16T15:57:15.886Z,123.83
2019-02-16T15:59:44.385Z,135.73
2019-02-16T16:02:14.038Z,114.37
2019-02-16T16:04:42.685Z,125.00
2019-02-16T16:07:12.509Z,120.77
2019-02-16T16:09:48.400Z,133.83
2019-02-16T16:12:25.002Z,124.20
2019-02-16T16:15:00.805Z,160.83
2019-02-16T16:17:36.834Z,223.30
2019-02-16T16:20:07.018Z,176.40
2019-02-16T16:22:38.872Z,163.87
2019-02-16T16:25:16.380Z,136.77
2019-02-16T16:27:46.318Z,134.50
2019-02-16T16:30:26.200Z,146.03
2019-02-16T16:33:01.752Z,114.67
2019-02-16T16:35:37.409Z,134.13
2019-02-16T16:38:07.488Z,121.87
2019-02-16T16:40:54.796Z,110.57
2019-02-16T16:43:31.271Z,121.73
2019-02-16T16:46:31.350Z,114.53
2019-02-16T16:49:04.293Z,132.07
2019-02-16T16:51:48.344Z,154.00
2019-02-16T16:54:37.502Z,151.80
2019-02-16T16:57:11.154Z,145.30
2019-02-16T16:59:53.404Z,131.50
2019-02-16T17:02:38.246Z,183.97
2019-02-16T17:05:17.406Z,133.57
2019-02-16T17:08:03.861Z,174.50
2019-02-16T17:10:52.092Z,141.73
2019-02-16T17:13:31.363Z,138.23
2019-02-16T17:16:16.541Z,138.27
2019-02-16T17:18:49.176Z,166.70
2019-02-16T17:21:18.989Z,194.63
2019-02-16T17:23:48.796Z,278.73
2019-02-16T17:26:21.637Z,352.03
2019-02-16T17:29:00.170Z,313.10
2019-02-16T17:31:42.308Z,206.53
2019-02-16T17:34:20.856Z,166.57
2019-02-16T17:36:59.975Z,176.83
2019-02-16T17:39:29.891Z,172.93
2019-02-16T17:41:59.687Z,163.20
2019-02-16T17:44:30.545Z,233.93
2019-02-16T17:47:00.341Z,252.87
2019-02-16T17:49:32.716Z,290.23
2019-02-16T17:52:20.651Z,311.60
2019-02-16T17:54:50.646Z,314.13
2019-02-16T17:57:36.708Z,268.37
2019-02-16T18:00:10.973Z,294.30
2019-02-16T18:02:41.629Z,330.03
2019-02-16T18:05:17.298Z,323.77
2019-02-16T18:07:53.330Z,226.77
2019-02-16T18:10:25.700Z,204.93
2019-02-16T18:12:58.024Z,235.30
2019-02-16T18:15:34.457Z,260.33
2019-02-16T18:18:19.003Z,244.67
2019-02-16T18:20:55.748Z,205.03
2019-02-16T18:23:33.984Z,220.63
2019-02-16T18:26:03.254Z,186.77
2019-02-16T18:28:34.423Z,176.87
2019-02-16T18:31:07.400Z,246.47
2019-02-16T18:33:37.197Z,265.00
2019-02-16T18:36:09.849Z,311.30
2019-02-16T18:38:42.912Z,292.63
2019-02-16T18:41:30.071Z,298.03
2019-02-16T18:44:05.859Z,315.43
2019-02-16T18:46:36.711Z,399.80
2019-02-16T18:49:06.567Z,239.57
2019-02-16T18:51:36.420Z,166.53
2019-02-16T18:54:14.994Z,182.27
2019-02-16T18:57:06.644Z,159.73
2019-02-16T18:59:33.093Z,172.57
2019-02-16T19:02:06.152Z,184.70
2019-02-16T19:04:39.207Z,173.87
2019-02-16T19:07:12.039Z,163.70
2019-02-16T19:09:45.043Z,179.33
2019-02-16T19:12:23.689Z,150.37
2019-02-16T19:15:09.908Z,144.67
2019-02-16T19:17:40.128Z,137.83
2019-02-16T19:20:16.083Z,136.83
2019-02-16T19:22:46.116Z,139.00
2019-02-16T19:25:19.027Z,107.77
2019-02-16T19:28:05.362Z,115.07
2019-02-16T19:30:35.642Z,141.17
2019-02-16T19:33:10.141Z,138.03
2019-02-16T19:35:43.038Z,145.10
2019-02-16T19:38:21.669Z,141.23
2019-02-16T19:41:00.679Z,128.03
2019-02-16T19:43:30.783Z,103.03
2019-02-16T19:46:09.801Z,84.80
2019-02-16T19:48:44.222Z,81.87
2019-02-16T19:51:30.543Z,86.63
2019-02-16T19:54:09.478Z,101.20
2019-02-16T19:56:45.832Z,126.80
2019-02-16T19:59:32.743Z,129.13
2019-02-16T20:02:02.650Z,128.83
2019-02-16T20:04:50.350Z,121.60
2019-02-16T20:07:32.597Z,118.77
2019-02-16T20:10:18.962Z,122.23
2019-02-16T20:13:05.219Z,118.13
2019-02-16T20:15:38.152Z,116.30
2019-02-16T20:18:08.214Z,123.73
2019-02-16T20:20:44.583Z,122.83
2019-02-16T20:23:18.098Z,128.90
2019-02-16T20:25:57.347Z,131.23
2019-02-16T20:28:36.021Z,125.90
2019-02-16T20:31:06.221Z,116.97
2019-02-16T20:33:41.852Z,126.43
2019-02-16T20:36:17.463Z,119.60
2019-02-16T20:38:59.214Z,122.63
2019-02-16T20:41:45.710Z,174.43
2019-02-16T20:44:18.448Z,175.57
2019-02-16T20:47:03.470Z,162.33
2019-02-16T20:49:35.007Z,163.47
2019-02-16T20:52:14.129Z,171.40
2019-02-16T20:54:53.174Z,158.63
2019-02-16T20:57:25.755Z,150.40
2019-02-16T21:00:07.848Z,146.23
2019-02-16T21:02:38.164Z,130.17
2019-02-16T21:05:07.970Z,114.67
2019-02-16T21:07:44.192Z,108.90
2019-02-16T21:10:20.242Z,124.33
2019-02-16T21:12:51.054Z,146.93
2019-02-16T21:15:21.338Z,128.20
2019-02-16T21:18:09.173Z,121.70
2019-02-16T21:20:41.532Z,122.60
2019-02-16T21:23:17.553Z,112.07
2019-02-16T21:25:59.510Z,110.77
2019-02-16T21:28:32.448Z,104.37
2019-02-16T21:31:11.475Z,91.23
2019-02-16T21:33:41.445Z,86.67
2019-02-16T21:36:18.312Z,97.73
2019-02-16T21:39:02.850Z,87.67
2019-02-16T21:41:32.048Z,104.90
2019-02-16T21:44:18.821Z,121.57
2019-02-16T21:46:48.964Z,167.20
2019-02-16T21:49:35.399Z,153.07
2019-02-16T21:52:06.638Z,100.30
2019-02-16T21:54:36.526Z,159.23
2019-02-16T21:57:15.474Z,115.30
2019-02-16T21:59:45.799Z,101.53
2019-02-16T22:02:27.748Z,114.67
2019-02-16T22:04:57.567Z,94.10
2019-02-16T22:07:33.708Z,91.03
2019-02-16T22:10:06.959Z,103.40
2019-02-16T22:12:52.106Z,154.40
2019-02-16T22:15:20.931Z,118.60
2019-02-16T22:17:49.392Z,87.50
2019-02-16T22:20:17.603Z,90.43
2019-02-16T22:22:46.033Z,82.33
2019-02-16T22:25:14.517Z,81.57
2019-02-16T22:27:42.715Z,102.23
2019-02-16T22:30:10.931Z,110.73
2019-02-16T22:32:39.338Z,83.17
2019-02-16T22:35:08.829Z,99.20
2019-02-16T22:37:37.223Z,84.07
2019-02-16T22:40:07.641Z,180.83
2019-02-16T22:42:35.935Z,55.80
2019-02-16T22:45:05.676Z,139.17
2019-02-16T22:47:33.822Z,64.77
2019-02-16T22:50:02.027Z,139.57
2019-02-16T22:52:30.452Z,45.13
2019-02-16T22:54:59.719Z,50.63
2019-02-16T22:57:28.145Z,53.83
2019-02-16T22:59:56.254Z,91.60
2019-02-16T23:02:24.687Z,132.73
2019-02-16T23:04:53.333Z,70.77
2019-02-16T23:07:21.735Z,47.03
2019-02-16T23:09:50.280Z,211.90
2019-02-16T23:12:18.807Z,348.53
2019-02-16T23:14:46.949Z,197.83
2019-02-16T23:17:15.471Z,150.03
2019-02-16T23:19:43.733Z,57.60
2019-02-16T23:22:11.889Z,48.10
2019-02-16T23:24:42.327Z,47.87
2019-02-16T23:27:10.592Z,55.00
2019-02-16T23:29:38.743Z,123.97
2019-02-16T23:32:07.308Z,40.93
2019-02-16T23:34:36.116Z,41.83
2019-02-16T23:37:04.271Z,42.83
2019-02-16T23:39:32.597Z,43.03
2019-02-16T23:42:00.809Z,39.97
2019-02-16T23:44:29.233Z,106.07
2019-02-16T23:46:57.599Z,128.43
2019-02-16T23:49:25.813Z,45.30
2019-02-16T23:51:54.269Z,43.47
2019-02-16T23:54:22.622Z,31.63
2019-02-16T23:56:52.130Z,33.60
2019-02-16T23:59:20.290Z,542.93
